Beverly, Kansas
Current Conditions -  °F | °C
As of 1:53 AM on Saturday 25 Oct 2014 (Local Time) from KSLN Reporting Station
Clear Clear  
Wind Chill: 62°   Ceiling: Unl
Heat Index: 62°   Visibility: 8mi
Dew Point: 59°   Wind: 3mph
Humidity: 90%   Direction: 40°NE
Pressure: 30.03"   Gusts: NA
Location:  39.01°N, 97.98°W
Report Text: KSLN 250653Z AUTO 04003KT 8SM CLR 17/15 A3003 RMK AO2 SLP159 T01670150
Loading
Personal Weather Stations






























Interactive Weather Map
Tropical Storm Tracking
New forecast layout! Learn more

10-Day Weather Forecast

Advertisements
Track Severe Weather on mobile